sensor_id;sensor_type;location;lat;lon;timestamp;pressure;altitude;pressure_sealevel;temperature;humidity
75065;BME280;63646;49.110;9.140;2022-12-07T00:01:15;99496.47;;;21.06;58.71
75065;BME280;63646;49.110;9.140;2022-12-07T00:03:42;99492.13;;;21.05;58.47
75065;BME280;63646;49.110;9.140;2022-12-07T00:06:10;99491.16;;;21.06;58.39
75065;BME280;63646;49.110;9.140;2022-12-07T00:08:36;99492.25;;;21.04;58.22
75065;BME280;63646;49.110;9.140;2022-12-07T00:11:09;99497.44;;;21.05;58.22
75065;BME280;63646;49.110;9.140;2022-12-07T00:13:35;99492.25;;;21.04;58.17
75065;BME280;63646;49.110;9.140;2022-12-07T00:16:07;99489.59;;;21.04;58.46
75065;BME280;63646;49.110;9.140;2022-12-07T00:18:32;99488.06;;;21.01;58.24
75065;BME280;63646;49.110;9.140;2022-12-07T00:21:06;99484.41;;;21.02;58.48
75065;BME280;63646;49.110;9.140;2022-12-07T00:23:33;99483.75;;;21.00;58.14
75065;BME280;63646;49.110;9.140;2022-12-07T00:26:12;99481.91;;;21.01;57.95
75065;BME280;63646;49.110;9.140;2022-12-07T00:28:38;99479.53;;;20.97;58.51
75065;BME280;63646;49.110;9.140;2022-12-07T00:31:07;99478.53;;;20.98;58.07
75065;BME280;63646;49.110;9.140;2022-12-07T00:33:33;99489.31;;;20.97;58.35
75065;BME280;63646;49.110;9.140;2022-12-07T00:36:00;99483.19;;;20.96;58.20
75065;BME280;63646;49.110;9.140;2022-12-07T00:38:28;99484.16;;;20.95;58.25
75065;BME280;63646;49.110;9.140;2022-12-07T00:40:59;99478.84;;;20.95;58.31
75065;BME280;63646;49.110;9.140;2022-12-07T00:43:26;99465.84;;;20.92;57.89
75065;BME280;63646;49.110;9.140;2022-12-07T00:45:51;99471.84;;;20.94;58.30
75065;BME280;63646;49.110;9.140;2022-12-07T00:48:17;99469.34;;;20.93;57.95
75065;BME280;63646;49.110;9.140;2022-12-07T00:50:42;99469.34;;;20.93;57.98
75065;BME280;63646;49.110;9.140;2022-12-07T00:53:08;99469.50;;;20.91;57.83
75065;BME280;63646;49.110;9.140;2022-12-07T00:55:34;99464.19;;;20.91;57.91
75065;BME280;63646;49.110;9.140;2022-12-07T00:58:00;99470.31;;;20.92;58.13
75065;BME280;63646;49.110;9.140;2022-12-07T01:00:25;99474.66;;;20.93;58.17
75065;BME280;63646;49.110;9.140;2022-12-07T01:02:50;99471.28;;;20.91;57.89
75065;BME280;63646;49.110;9.140;2022-12-07T01:05:16;99480.22;;;20.90;57.94
75065;BME280;63646;49.110;9.140;2022-12-07T01:07:41;99479.41;;;20.89;58.03
75065;BME280;63646;49.110;9.140;2022-12-07T01:10:07;99463.47;;;20.89;58.05
75065;BME280;63646;49.110;9.140;2022-12-07T01:12:32;99472.25;;;20.90;57.80
75065;BME280;63646;49.110;9.140;2022-12-07T01:14:58;99469.06;;;20.86;58.00
75065;BME280;63646;49.110;9.140;2022-12-07T01:17:23;99469.06;;;20.86;58.21
75065;BME280;63646;49.110;9.140;2022-12-07T01:19:48;99470.88;;;20.86;58.02
75065;BME280;63646;49.110;9.140;2022-12-07T01:22:14;99460.41;;;20.84;57.96
75065;BME280;63646;49.110;9.140;2022-12-07T01:24:39;99467.38;;;20.85;58.25
75065;BME280;63646;49.110;9.140;2022-12-07T01:27:04;99471.84;;;20.85;58.13
75065;BME280;63646;49.110;9.140;2022-12-07T01:29:30;99471.84;;;20.85;57.78
75065;BME280;63646;49.110;9.140;2022-12-07T01:31:55;99480.66;;;20.85;58.21
75065;BME280;63646;49.110;9.140;2022-12-07T01:34:21;99474.50;;;20.85;57.85
75065;BME280;63646;49.110;9.140;2022-12-07T01:36:47;99479.00;;;20.84;58.07
75065;BME280;63646;49.110;9.140;2022-12-07T01:39:12;99479.00;;;20.84;58.03
75065;BME280;63646;49.110;9.140;2022-12-07T01:41:39;99480.78;;;20.84;57.90
75065;BME280;63646;49.110;9.140;2022-12-07T01:44:16;99479.94;;;20.83;57.60
75065;BME280;63646;49.110;9.140;2022-12-07T01:46:47;99476.59;;;20.81;57.63
75065;BME280;63646;49.110;9.140;2022-12-07T01:49:17;99476.59;;;20.81;57.86
75065;BME280;63646;49.110;9.140;2022-12-07T01:51:44;99471.28;;;20.81;57.56
75065;BME280;63646;49.110;9.140;2022-12-07T01:54:12;99473.25;;;20.79;57.90
75065;BME280;63646;49.110;9.140;2022-12-07T01:56:41;99475.06;;;20.79;57.76
75065;BME280;63646;49.110;9.140;2022-12-07T01:59:08;99475.22;;;20.77;57.77
75065;BME280;63646;49.110;9.140;2022-12-07T02:01:33;99475.22;;;20.77;57.87
75065;BME280;63646;49.110;9.140;2022-12-07T02:03:58;99476.88;;;20.78;57.72
75065;BME280;63646;49.110;9.140;2022-12-07T02:06:25;99476.88;;;20.78;57.75
75065;BME280;63646;49.110;9.140;2022-12-07T02:08:51;99477.88;;;20.77;57.67
75065;BME280;63646;49.110;9.140;2022-12-07T02:11:17;99467.38;;;20.75;57.55
75065;BME280;63646;49.110;9.140;2022-12-07T02:13:44;99471.84;;;20.75;57.94
75065;BME280;63646;49.110;9.140;2022-12-07T02:27:37;99457.88;;;20.73;57.57
75065;BME280;63646;49.110;9.140;2022-12-07T02:30:25;99452.56;;;20.73;58.01
75065;BME280;63646;49.110;9.140;2022-12-07T02:33:04;99450.03;;;20.71;58.05
75065;BME280;63646;49.110;9.140;2022-12-07T02:36:06;99439.28;;;20.73;57.85
75065;BME280;63646;49.110;9.140;2022-12-07T02:41:22;99453.69;;;20.70;57.87
75065;BME280;63646;49.110;9.140;2022-12-07T02:43:52;99459.81;;;20.71;58.29
75065;BME280;63646;49.110;9.140;2022-12-07T02:46:25;99455.50;;;20.70;57.76
75065;BME280;63646;49.110;9.140;2022-12-07T02:48:53;99460.53;;;20.73;57.84
75065;BME280;63646;49.110;9.140;2022-12-07T02:51:21;99459.81;;;20.71;57.54
75065;BME280;63646;49.110;9.140;2022-12-07T02:53:46;99468.78;;;20.70;57.71
75065;BME280;63646;49.110;9.140;2022-12-07T03:01:32;99460.81;;;20.70;57.67
75065;BME280;63646;49.110;9.140;2022-12-07T03:04:22;99452.13;;;20.68;57.63
75065;BME280;63646;49.110;9.140;2022-12-07T03:07:00;99452.13;;;20.68;57.80
75065;BME280;63646;49.110;9.140;2022-12-07T03:09:41;99442.63;;;20.65;57.65
75065;BME280;63646;49.110;9.140;2022-12-07T03:12:22;99442.50;;;20.67;57.59
75065;BME280;63646;49.110;9.140;2022-12-07T03:15:00;99435.53;;;20.66;57.65
75065;BME280;63646;49.110;9.140;2022-12-07T03:17:31;99422.25;;;20.66;57.78
75065;BME280;63646;49.110;9.140;2022-12-07T03:20:02;99412.56;;;20.65;57.76
75065;BME280;63646;49.110;9.140;2022-12-07T03:22:31;99401.28;;;20.63;58.18
75065;BME280;63646;49.110;9.140;2022-12-07T03:25:00;99401.13;;;20.64;57.61
75065;BME280;63646;49.110;9.140;2022-12-07T03:27:32;99394.97;;;20.64;57.54
75065;BME280;63646;49.110;9.140;2022-12-07T03:35:03;99415.38;;;20.63;58.04
75065;BME280;63646;49.110;9.140;2022-12-07T03:37:35;99413.56;;;20.64;57.93
75065;BME280;63646;49.110;9.140;2022-12-07T03:40:11;99414.56;;;20.63;57.77
75065;BME280;63646;49.110;9.140;2022-12-07T03:42:38;99418.88;;;20.64;57.58
75065;BME280;63646;49.110;9.140;2022-12-07T03:45:05;99425.16;;;20.63;57.90
75065;BME280;63646;49.110;9.140;2022-12-07T03:47:34;99418.16;;;20.62;57.58
75065;BME280;63646;49.110;9.140;2022-12-07T03:52:51;99415.38;;;20.63;57.59
75065;BME280;63646;49.110;9.140;2022-12-07T03:55:25;99408.53;;;20.61;57.52
75065;BME280;63646;49.110;9.140;2022-12-07T03:57:55;99412.84;;;20.62;57.74
75065;BME280;63646;49.110;9.140;2022-12-07T04:00:22;99424.47;;;20.61;57.65
75065;BME280;63646;49.110;9.140;2022-12-07T04:02:51;99427.13;;;20.61;57.67
75065;BME280;63646;49.110;9.140;2022-12-07T04:05:17;99430.75;;;20.60;57.67
75065;BME280;63646;49.110;9.140;2022-12-07T04:07:42;99430.75;;;20.60;57.86
75065;BME280;63646;49.110;9.140;2022-12-07T04:10:08;99444.03;;;20.60;57.78
75065;BME280;63646;49.110;9.140;2022-12-07T04:12:33;99425.56;;;20.58;57.87
75065;BME280;63646;49.110;9.140;2022-12-07T04:14:59;99423.78;;;20.59;57.76
75065;BME280;63646;49.110;9.140;2022-12-07T04:17:24;99423.78;;;20.59;57.54
75065;BME280;63646;49.110;9.140;2022-12-07T04:19:49;99423.78;;;20.59;57.45
75065;BME280;63646;49.110;9.140;2022-12-07T04:22:15;99408.81;;;20.58;57.65
75065;BME280;63646;49.110;9.140;2022-12-07T04:24:40;99408.81;;;20.58;57.42
75065;BME280;63646;49.110;9.140;2022-12-07T04:27:05;99415.09;;;20.57;57.87
75065;BME280;63646;49.110;9.140;2022-12-07T04:29:31;99425.72;;;20.57;57.47
75065;BME280;63646;49.110;9.140;2022-12-07T04:31:56;99422.38;;;20.55;57.65
75065;BME280;63646;49.110;9.140;2022-12-07T04:34:21;99419.72;;;20.55;57.57
75065;BME280;63646;49.110;9.140;2022-12-07T04:36:47;99414.25;;;20.56;57.69
75065;BME280;63646;49.110;9.140;2022-12-07T04:39:29;99415.25;;;20.55;57.57
75065;BME280;63646;49.110;9.140;2022-12-07T04:41:55;99417.06;;;20.55;57.59
75065;BME280;63646;49.110;9.140;2022-12-07T04:44:21;99416.09;;;20.56;57.85
75065;BME280;63646;49.110;9.140;2022-12-07T04:46:47;99410.06;;;20.54;57.60
75065;BME280;63646;49.110;9.140;2022-12-07T04:49:14;99403.09;;;20.53;57.69
75065;BME280;63646;49.110;9.140;2022-12-07T04:51:39;99411.19;;;20.51;57.86
75065;BME280;63646;49.110;9.140;2022-12-07T04:54:05;99401.66;;;20.48;57.67
75065;BME280;63646;49.110;9.140;2022-12-07T04:56:31;99408.38;;;20.53;57.73
75065;BME280;63646;49.110;9.140;2022-12-07T04:58:59;99408.38;;;20.53;57.76
75065;BME280;63646;49.110;9.140;2022-12-07T05:01:25;99412.88;;;20.52;57.58
75065;BME280;63646;49.110;9.140;2022-12-07T05:03:50;99412.03;;;20.52;57.82
75065;BME280;63646;49.110;9.140;2022-12-07T05:06:16;99416.50;;;20.51;57.69
75065;BME280;63646;49.110;9.140;2022-12-07T05:08:41;99415.63;;;20.50;57.80
75065;BME280;63646;49.110;9.140;2022-12-07T05:11:08;99412.88;;;20.52;57.53
75065;BME280;63646;49.110;9.140;2022-12-07T05:13:35;99412.03;;;20.52;57.77
75065;BME280;63646;49.110;9.140;2022-12-07T05:16:01;99418.19;;;20.52;57.61
75065;BME280;63646;49.110;9.140;2022-12-07T05:18:27;99409.50;;;20.50;57.58
75065;BME280;63646;49.110;9.140;2022-12-07T05:20:52;99416.50;;;20.51;57.46
75065;BME280;63646;49.110;9.140;2022-12-07T05:23:18;99405.03;;;20.50;57.77
75065;BME280;63646;49.110;9.140;2022-12-07T05:25:45;99406.97;;;20.48;57.50
75065;BME280;63646;49.110;9.140;2022-12-07T05:28:11;99407.69;;;20.50;57.45
75065;BME280;63646;49.110;9.140;2022-12-07T05:30:36;99397.19;;;20.49;57.60
75065;BME280;63646;49.110;9.140;2022-12-07T05:33:02;99402.66;;;20.47;57.50
75065;BME280;63646;49.110;9.140;2022-12-07T05:35:28;99397.19;;;20.49;57.69
75065;BME280;63646;49.110;9.140;2022-12-07T05:37:55;99396.22;;;20.50;57.47
75065;BME280;63646;49.110;9.140;2022-12-07T05:40:20;99388.38;;;20.48;57.83
75065;BME280;63646;49.110;9.140;2022-12-07T05:42:48;99382.13;;;20.49;58.06
75065;BME280;63646;49.110;9.140;2022-12-07T05:45:14;99377.78;;;20.48;57.81
75065;BME280;63646;49.110;9.140;2022-12-07T05:47:39;99383.78;;;20.50;57.89
75065;BME280;63646;49.110;9.140;2022-12-07T05:50:06;99390.78;;;20.52;58.13
75065;BME280;63646;49.110;9.140;2022-12-07T05:52:32;99388.81;;;20.54;57.98
75065;BME280;63646;49.110;9.140;2022-12-07T05:54:57;99401.16;;;20.55;58.39
75065;BME280;63646;49.110;9.140;2022-12-07T05:57:22;99400.00;;;20.57;58.06
75065;BME280;63646;49.110;9.140;2022-12-07T05:59:48;99401.66;;;20.58;57.96
75065;BME280;63646;49.110;9.140;2022-12-07T06:02:14;99407.84;;;20.59;58.23
75065;BME280;63646;49.110;9.140;2022-12-07T06:04:45;99409.38;;;20.61;58.19
75065;BME280;63646;49.110;9.140;2022-12-07T06:07:12;99408.69;;;20.59;58.40
75065;BME280;63646;49.110;9.140;2022-12-07T06:09:37;99404.22;;;20.60;57.90
75065;BME280;63646;49.110;9.140;2022-12-07T06:12:03;99409.38;;;20.61;57.75
75065;BME280;63646;49.110;9.140;2022-12-07T06:14:47;99405.88;;;20.61;57.82
75065;BME280;63646;49.110;9.140;2022-12-07T06:17:13;99404.22;;;20.60;57.87
75065;BME280;63646;49.110;9.140;2022-12-07T06:19:39;99412.16;;;20.60;57.84
75065;BME280;63646;49.110;9.140;2022-12-07T06:22:05;99407.84;;;20.59;57.75
75065;BME280;63646;49.110;9.140;2022-12-07T06:24:31;99403.50;;;20.58;57.76
75065;BME280;63646;49.110;9.140;2022-12-07T06:26:57;99406.84;;;20.60;57.90
75065;BME280;63646;49.110;9.140;2022-12-07T06:29:23;99411.19;;;20.61;58.43
75065;BME280;63646;49.110;9.140;2022-12-07T06:31:48;99413.16;;;20.59;58.36
75065;BME280;63646;49.110;9.140;2022-12-07T06:34:17;99405.88;;;20.61;57.96
75065;BME280;63646;49.110;9.140;2022-12-07T06:36:43;99399.47;;;20.63;57.94
75065;BME280;63646;49.110;9.140;2022-12-07T06:39:09;99408.97;;;20.66;57.97
75065;BME280;63646;49.110;9.140;2022-12-07T06:41:36;99410.47;;;20.68;57.83
75065;BME280;63646;49.110;9.140;2022-12-07T06:44:02;99413.28;;;20.67;57.63
75065;BME280;63646;49.110;9.140;2022-12-07T06:46:28;99414.28;;;20.66;57.25
75065;BME280;63646;49.110;9.140;2022-12-07T06:48:53;99417.06;;;20.64;58.00
75065;BME280;63646;49.110;9.140;2022-12-07T06:51:18;99413.84;;;20.61;57.73
75065;BME280;63646;49.110;9.140;2022-12-07T06:53:44;99418.16;;;20.62;57.92
75065;BME280;63646;49.110;9.140;2022-12-07T06:56:09;99420.69;;;20.63;57.59
75065;BME280;63646;49.110;9.140;2022-12-07T06:58:34;99418.16;;;20.62;58.10
75065;BME280;63646;49.110;9.140;2022-12-07T07:01:00;99413.84;;;20.61;57.94
75065;BME280;63646;49.110;9.140;2022-12-07T07:03:25;99414.81;;;20.60;58.29
75065;BME280;63646;49.110;9.140;2022-12-07T07:05:51;99422.78;;;20.60;58.02
75065;BME280;63646;49.110;9.140;2022-12-07T07:08:16;99427.13;;;20.61;58.06
75065;BME280;63646;49.110;9.140;2022-12-07T07:10:41;99425.44;;;20.60;57.93
75065;BME280;63646;49.110;9.140;2022-12-07T07:13:07;99427.13;;;20.61;58.15
75065;BME280;63646;49.110;9.140;2022-12-07T07:15:33;99431.44;;;20.62;58.20
75065;BME280;63646;49.110;9.140;2022-12-07T07:17:59;99427.81;;;20.63;58.59
75065;BME280;63646;49.110;9.140;2022-12-07T07:20:24;99426.00;;;20.63;58.43
75065;BME280;63646;49.110;9.140;2022-12-07T07:22:50;99432.97;;;20.64;58.13
75065;BME280;63646;49.110;9.140;2022-12-07T07:25:16;99420.53;;;20.65;58.42
75065;BME280;63646;49.110;9.140;2022-12-07T07:27:41;99427.56;;;20.66;58.45
75065;BME280;63646;49.110;9.140;2022-12-07T07:30:08;99431.88;;;20.67;58.59
75065;BME280;63646;49.110;9.140;2022-12-07T07:32:33;99431.88;;;20.67;58.13
75065;BME280;63646;49.110;9.140;2022-12-07T07:34:58;99438.03;;;20.67;58.23
75065;BME280;63646;49.110;9.140;2022-12-07T07:37:25;99400.00;;;20.67;57.79
75065;BME280;63646;49.110;9.140;2022-12-07T07:39:50;99407.00;;;20.68;57.94
75065;BME280;63646;49.110;9.140;2022-12-07T07:42:16;99418.44;;;20.68;57.93
75065;BME280;63646;49.110;9.140;2022-12-07T07:44:41;99444.88;;;20.70;57.92
75065;BME280;63646;49.110;9.140;2022-12-07T07:47:06;99447.53;;;20.70;57.82
75065;BME280;63646;49.110;9.140;2022-12-07T07:49:32;99445.56;;;20.72;58.41
75065;BME280;63646;49.110;9.140;2022-12-07T07:51:57;99443.91;;;20.71;58.16
75065;BME280;63646;49.110;9.140;2022-12-07T07:54:22;99443.63;;;20.74;58.21
75065;BME280;63646;49.110;9.140;2022-12-07T07:56:48;99440.97;;;20.74;58.38
75065;BME280;63646;49.110;9.140;2022-12-07T07:59:14;99443.63;;;20.74;57.91
75065;BME280;63646;49.110;9.140;2022-12-07T08:01:39;99446.41;;;20.72;58.03
75065;BME280;63646;49.110;9.140;2022-12-07T08:04:05;99445.28;;;20.75;57.92
75065;BME280;63646;49.110;9.140;2022-12-07T08:06:30;99451.59;;;20.74;57.97
75065;BME280;63646;49.110;9.140;2022-12-07T08:08:55;99451.59;;;20.74;58.30
75065;BME280;63646;49.110;9.140;2022-12-07T08:11:23;99459.56;;;20.74;57.92
75065;BME280;63646;49.110;9.140;2022-12-07T08:13:48;99461.22;;;20.75;58.40
75065;BME280;63646;49.110;9.140;2022-12-07T08:16:13;99461.22;;;20.75;58.62
75065;BME280;63646;49.110;9.140;2022-12-07T08:18:41;99462.06;;;20.75;58.04
75065;BME280;63646;49.110;9.140;2022-12-07T08:21:07;99467.53;;;20.74;58.14
75065;BME280;63646;49.110;9.140;2022-12-07T08:23:33;99465.84;;;20.73;58.03
75065;BME280;63646;49.110;9.140;2022-12-07T08:26:25;99467.06;;;20.69;57.76
75065;BME280;63646;49.110;9.140;2022-12-07T08:28:52;99467.06;;;20.69;57.03
75065;BME280;63646;49.110;9.140;2022-12-07T08:31:18;99458.44;;;20.67;57.33
75065;BME280;63646;49.110;9.140;2022-12-07T08:33:47;99462.75;;;20.68;57.18
75065;BME280;63646;49.110;9.140;2022-12-07T08:36:13;99466.41;;;20.67;57.42
75065;BME280;63646;49.110;9.140;2022-12-07T08:38:40;99460.09;;;20.68;57.20
75065;BME280;63646;49.110;9.140;2022-12-07T08:41:07;99461.75;;;20.69;57.26
75065;BME280;63646;49.110;9.140;2022-12-07T08:43:33;99460.66;;;20.71;57.20
75065;BME280;63646;49.110;9.140;2022-12-07T08:48:50;99455.34;;;20.71;57.09
75065;BME280;63646;49.110;9.140;2022-12-07T08:51:17;99460.66;;;20.71;57.23
75065;BME280;63646;49.110;9.140;2022-12-07T08:53:43;99458.16;;;20.70;56.96
75065;BME280;63646;49.110;9.140;2022-12-07T08:56:09;99456.19;;;20.72;57.53
75065;BME280;63646;49.110;9.140;2022-12-07T08:58:35;99459.81;;;20.71;56.94
75065;BME280;63646;49.110;9.140;2022-12-07T09:01:01;99459.00;;;20.70;57.30
75065;BME280;63646;49.110;9.140;2022-12-07T09:03:26;99459.97;;;20.69;57.22
75065;BME280;63646;49.110;9.140;2022-12-07T09:05:53;99454.78;;;20.68;57.14
75065;BME280;63646;49.110;9.140;2022-12-07T09:08:18;99465.13;;;20.71;56.92
75065;BME280;63646;49.110;9.140;2022-12-07T09:10:44;99456.47;;;20.69;56.71
75065;BME280;63646;49.110;9.140;2022-12-07T09:13:10;99461.75;;;20.69;57.11
75065;BME280;63646;49.110;9.140;2022-12-07T09:15:35;99452.13;;;20.68;57.00
75065;BME280;63646;49.110;9.140;2022-12-07T09:18:01;99458.28;;;20.68;57.18
75065;BME280;63646;49.110;9.140;2022-12-07T09:20:26;99463.59;;;20.68;57.02
75065;BME280;63646;49.110;9.140;2022-12-07T09:22:51;99470.72;;;20.68;56.83
75065;BME280;63646;49.110;9.140;2022-12-07T09:25:17;99469.88;;;20.67;56.73
75065;BME280;63646;49.110;9.140;2022-12-07T09:27:42;99472.53;;;20.67;56.24
75065;BME280;63646;49.110;9.140;2022-12-07T09:30:08;99461.09;;;20.67;56.62
75065;BME280;63646;49.110;9.140;2022-12-07T09:32:33;99470.88;;;20.66;56.91
75065;BME280;63646;49.110;9.140;2022-12-07T09:34:58;99465.56;;;20.66;56.52
75065;BME280;63646;49.110;9.140;2022-12-07T09:37:24;99469.88;;;20.67;56.56
75065;BME280;63646;49.110;9.140;2022-12-07T09:39:49;99464.72;;;20.66;56.50
75065;BME280;63646;49.110;9.140;2022-12-07T09:42:36;99461.19;;;20.65;56.78
75065;BME280;63646;49.110;9.140;2022-12-07T09:45:04;99463.03;;;20.65;56.64
75065;BME280;63646;49.110;9.140;2022-12-07T09:47:30;99461.19;;;20.65;56.47
75065;BME280;63646;49.110;9.140;2022-12-07T09:50:10;99460.38;;;20.65;56.89
75065;BME280;63646;49.110;9.140;2022-12-07T09:52:37;99458.69;;;20.64;56.62
75065;BME280;63646;49.110;9.140;2022-12-07T09:55:03;99458.69;;;20.64;56.90
75065;BME280;63646;49.110;9.140;2022-12-07T09:57:31;99459.53;;;20.64;56.49
75065;BME280;63646;49.110;9.140;2022-12-07T10:00:03;99456.88;;;20.64;56.81
75065;BME280;63646;49.110;9.140;2022-12-07T10:05:10;99450.72;;;20.64;57.08
75065;BME280;63646;49.110;9.140;2022-12-07T10:07:37;99451.72;;;20.63;56.95
75065;BME280;63646;49.110;9.140;2022-12-07T10:10:05;99445.56;;;20.62;56.96
75065;BME280;63646;49.110;9.140;2022-12-07T10:15:46;99445.28;;;20.65;56.96
75065;BME280;63646;49.110;9.140;2022-12-07T10:18:38;99441.78;;;20.65;56.58
75065;BME280;63646;49.110;9.140;2022-12-07T10:21:24;99434.66;;;20.65;56.66
75065;BME280;63646;49.110;9.140;2022-12-07T10:24:03;99428.22;;;20.68;56.76
75065;BME280;63646;49.110;9.140;2022-12-07T10:29:32;99428.22;;;20.68;56.37
75065;BME280;63646;49.110;9.140;2022-12-07T10:32:05;99430.88;;;20.68;56.50
75065;BME280;63646;49.110;9.140;2022-12-07T10:34:34;99432.88;;;20.66;56.58
75065;BME280;63646;49.110;9.140;2022-12-07T10:37:15;99425.56;;;20.68;56.36
75065;BME280;63646;49.110;9.140;2022-12-07T10:39:46;99423.75;;;20.68;56.36
75065;BME280;63646;49.110;9.140;2022-12-07T10:44:41;99418.72;;;20.65;56.04
75065;BME280;63646;49.110;9.140;2022-12-07T11:00:28;99409.09;;;20.64;56.62
75065;BME280;63646;49.110;9.140;2022-12-07T11:06:29;99401.13;;;20.64;56.53
75065;BME280;63646;49.110;9.140;2022-12-07T11:12:01;99397.63;;;20.64;56.40
75065;BME280;63646;49.110;9.140;2022-12-07T11:14:40;99404.63;;;20.65;56.42
75065;BME280;63646;49.110;9.140;2022-12-07T11:23:49;99387.16;;;20.72;56.33
75065;BME280;63646;49.110;9.140;2022-12-07T11:34:36;99382.94;;;20.79;56.53
75065;BME280;63646;49.110;9.140;2022-12-07T11:37:09;99380.44;;;20.78;56.84
75065;BME280;63646;49.110;9.140;2022-12-07T11:39:43;99376.81;;;20.79;56.34
75065;BME280;63646;49.110;9.140;2022-12-07T11:42:16;99379.31;;;20.80;56.66
75065;BME280;63646;49.110;9.140;2022-12-07T11:50:03;99375.69;;;20.81;55.73
75065;BME280;63646;49.110;9.140;2022-12-07T11:55:18;99367.28;;;20.86;56.27
75065;BME280;63646;49.110;9.140;2022-12-07T11:57:50;99359.16;;;20.87;57.39
75065;BME280;63646;49.110;9.140;2022-12-07T12:00:17;99357.06;;;20.91;56.89
75065;BME280;63646;49.110;9.140;2022-12-07T12:03:09;99354.28;;;20.92;56.82
75065;BME280;63646;49.110;9.140;2022-12-07T12:05:32;99359.44;;;20.94;56.69
75065;BME280;63646;49.110;9.140;2022-12-07T12:13:27;99341.56;;;20.96;56.35
75065;BME280;63646;49.110;9.140;2022-12-07T12:18:48;99338.06;;;20.95;56.78
75065;BME280;63646;49.110;9.140;2022-12-07T12:21:21;99333.72;;;20.94;56.27
75065;BME280;63646;49.110;9.140;2022-12-07T12:23:51;99333.88;;;20.93;56.61
75065;BME280;63646;49.110;9.140;2022-12-07T12:26:22;99341.00;;;20.92;56.36
75065;BME280;63646;49.110;9.140;2022-12-07T12:33:53;99333.03;;;20.92;56.43
75065;BME280;63646;49.110;9.140;2022-12-07T12:36:23;99326.06;;;20.91;56.57
75065;BME280;63646;49.110;9.140;2022-12-07T12:39:09;99326.75;;;20.93;56.69
75065;BME280;63646;49.110;9.140;2022-12-07T12:51:50;99327.03;;;20.90;57.26
75065;BME280;63646;49.110;9.140;2022-12-07T13:15:52;99303.41;;;20.87;57.28
75065;BME280;63646;49.110;9.140;2022-12-07T13:28:48;99296.84;;;20.91;56.57
75065;BME280;63646;49.110;9.140;2022-12-07T13:33:54;99285.34;;;20.91;56.80
75065;BME280;63646;49.110;9.140;2022-12-07T13:36:24;99285.22;;;20.92;56.91
75065;BME280;63646;49.110;9.140;2022-12-07T13:39:11;99282.56;;;20.92;56.56
75065;BME280;63646;49.110;9.140;2022-12-07T13:41:42;99282.56;;;20.92;56.79
75065;BME280;63646;49.110;9.140;2022-12-07T13:47:00;99278.09;;;20.93;56.97
75065;BME280;63646;49.110;9.140;2022-12-07T13:49:31;99281.75;;;20.92;56.83
75065;BME280;63646;49.110;9.140;2022-12-07T13:52:25;99282.56;;;20.92;56.57
75065;BME280;63646;49.110;9.140;2022-12-07T13:57:33;99282.84;;;20.89;56.83
75065;BME280;63646;49.110;9.140;2022-12-07T14:00:01;99282.03;;;20.89;57.03
75065;BME280;63646;49.110;9.140;2022-12-07T14:02:34;99287.19;;;20.90;56.52
75065;BME280;63646;49.110;9.140;2022-12-07T14:05:32;99289.84;;;20.90;56.98
75065;BME280;63646;49.110;9.140;2022-12-07T14:08:20;99282.69;;;20.91;57.31
75065;BME280;63646;49.110;9.140;2022-12-07T14:16:01;99284.25;;;20.93;57.24
75065;BME280;63646;49.110;9.140;2022-12-07T14:18:39;99288.44;;;20.96;57.46
75065;BME280;63646;49.110;9.140;2022-12-07T14:23:39;99290.09;;;20.97;57.85
75065;BME280;63646;49.110;9.140;2022-12-07T14:26:10;99295.41;;;20.97;57.76
75065;BME280;63646;49.110;9.140;2022-12-07T14:28:37;99298.78;;;20.99;57.50
75065;BME280;63646;49.110;9.140;2022-12-07T14:31:03;99296.13;;;20.99;57.72
75065;BME280;63646;49.110;9.140;2022-12-07T14:33:29;99288.28;;;20.97;57.71
75065;BME280;63646;49.110;9.140;2022-12-07T14:35:55;99290.09;;;20.97;57.90
75065;BME280;63646;49.110;9.140;2022-12-07T14:38:22;99286.63;;;20.96;57.58
75065;BME280;63646;49.110;9.140;2022-12-07T14:40:49;99281.31;;;20.96;57.82
75065;BME280;63646;49.110;9.140;2022-12-07T14:43:16;99285.63;;;20.97;57.48
75065;BME280;63646;49.110;9.140;2022-12-07T14:45:41;99283.13;;;20.96;57.64
75065;BME280;63646;49.110;9.140;2022-12-07T14:48:11;99284.78;;;20.97;57.66
75065;BME280;63646;49.110;9.140;2022-12-07T14:50:40;99284.78;;;20.97;57.78
75065;BME280;63646;49.110;9.140;2022-12-07T14:53:13;99279.31;;;20.98;58.07
75065;BME280;63646;49.110;9.140;2022-12-07T14:55:39;99281.97;;;20.98;57.66
75065;BME280;63646;49.110;9.140;2022-12-07T14:58:05;99275.00;;;20.97;57.82
75065;BME280;63646;49.110;9.140;2022-12-07T15:00:31;99276.81;;;20.97;57.69
75065;BME280;63646;49.110;9.140;2022-12-07T15:02:57;99278.34;;;20.99;59.25
75065;BME280;63646;49.110;9.140;2022-12-07T15:05:23;99286.03;;;21.03;60.72
75065;BME280;63646;49.110;9.140;2022-12-07T15:07:50;99288.69;;;21.03;59.82
75065;BME280;63646;49.110;9.140;2022-12-07T15:10:24;99283.38;;;21.03;59.67
75065;BME280;63646;49.110;9.140;2022-12-07T15:12:54;99280.72;;;21.03;60.44
75065;BME280;63646;49.110;9.140;2022-12-07T15:15:19;99285.06;;;21.04;60.09
75065;BME280;63646;49.110;9.140;2022-12-07T15:17:45;99283.22;;;21.04;59.48
75065;BME280;63646;49.110;9.140;2022-12-07T15:20:15;99283.06;;;21.06;59.62
75065;BME280;63646;49.110;9.140;2022-12-07T15:22:42;99282.09;;;21.07;59.17
75065;BME280;63646;49.110;9.140;2022-12-07T15:25:09;99283.94;;;21.06;59.01
75065;BME280;63646;49.110;9.140;2022-12-07T15:27:37;99287.84;;;21.02;58.52
75065;BME280;63646;49.110;9.140;2022-12-07T15:30:03;99287.28;;;20.98;57.68
75065;BME280;63646;49.110;9.140;2022-12-07T15:32:29;99287.44;;;20.97;58.00
75065;BME280;63646;49.110;9.140;2022-12-07T15:34:54;99271.66;;;20.95;57.31
75065;BME280;63646;49.110;9.140;2022-12-07T15:37:19;99287.59;;;20.95;57.22
75065;BME280;63646;49.110;9.140;2022-12-07T15:39:45;99283.25;;;20.94;57.25
75065;BME280;63646;49.110;9.140;2022-12-07T15:42:10;99287.59;;;20.95;57.65